Terminal Aerodrome Forecast
Issued by NWS

Home | Current Version | Previous Version | Text Only | Print | Product List | Glossary On
Versions: 1 2 3 4 5 6 7 8 9 10 11 12 13
000
FTUS45 KREV 271700
TAFMMH
TAF
KMMH 271736Z 2718/2818 VRB04KT P6SM BKN180
     FM271900 18010G20KT P6SM SCT180
     FM280200 29007KT P6SM SKC=

USA.gov is the U.S. government's official web portal to all federal, state and local government web resources and services.